Time;durP1;ratioP1;P1;durP2;ratioP2;P2;SDS_P1;SDS_P2;PMS_P1;PMS_P2;Temp;Humidity;BMP_temperature;BMP_pressure;BME280_temperature;BME280_humidity;BME280_pressure;Samples;Min_cycle;Max_cycle;Signal;HPM_P1;HPM_P2
2022/07/19 00:02:05;;;;;;;6.72;5.30;;;18.20;99.90;;;;;;6239579;23;20012;-79
2022/07/19 00:04:32;;;;;;;7.07;4.93;;;18.00;99.90;;;;;;6238941;23;20111;-78
2022/07/19 00:06:58;;;;;;;6.45;4.90;;;17.90;99.90;;;;;;6187072;23;20059;-77
2022/07/19 00:09:25;;;;;;;7.30;5.05;;;17.70;99.90;;;;;;6213549;23;20357;-76
2022/07/19 00:11:51;;;;;;;5.80;5.20;;;17.60;99.90;;;;;;6213297;23;20325;-75
2022/07/19 00:14:17;;;;;;;6.15;5.55;;;17.40;99.90;;;;;;6238961;23;20392;-76
2022/07/19 00:16:43;;;;;;;6.82;5.65;;;17.40;99.90;;;;;;6212065;23;20024;-75
2022/07/19 00:19:09;;;;;;;7.78;5.75;;;17.30;99.90;;;;;;6213147;23;20020;-76
2022/07/19 00:21:34;;;;;;;7.38;6.43;;;17.30;99.90;;;;;;6237376;23;20058;-76
2022/07/19 00:24:00;;;;;;;9.25;6.85;;;17.20;99.90;;;;;;6214112;23;20012;-78
2022/07/19 00:26:27;;;;;;;8.77;6.70;;;17.10;99.90;;;;;;6213196;23;20019;-77
2022/07/19 00:28:54;;;;;;;8.15;6.57;;;17.20;99.90;;;;;;6188494;23;20012;-76
2022/07/19 00:31:21;;;;;;;7.28;6.57;;;17.20;99.90;;;;;;6238476;23;20023;-76
2022/07/19 00:33:47;;;;;;;9.43;6.85;;;17.30;99.90;;;;;;6213178;23;20012;-76
2022/07/19 00:36:13;;;;;;;8.13;6.70;;;17.30;99.90;;;;;;6212756;23;20082;-76
2022/07/19 00:38:39;;;;;;;9.13;6.80;;;17.30;99.90;;;;;;6212268;23;20050;-77
2022/07/19 00:41:04;;;;;;;7.63;6.78;;;17.40;99.90;;;;;;6213344;23;20016;-77
2022/07/19 00:43:30;;;;;;;10.27;7.45;;;17.40;99.90;;;;;;6238805;23;20008;-80
2022/07/19 00:45:56;;;;;;;8.68;6.93;;;17.30;99.90;;;;;;6213588;23;20012;-77
2022/07/19 00:48:22;;;;;;;9.13;6.22;;;17.20;99.90;;;;;;6237054;23;20027;-76
2022/07/19 00:50:48;;;;;;;7.32;6.28;;;17.10;99.90;;;;;;6188079;23;20016;-79
2022/07/19 00:53:14;;;;;;;7.03;5.85;;;17.10;99.90;;;;;;6239131;23;20015;-79
2022/07/19 00:55:44;;;;;;;7.28;6.18;;;17.00;99.90;;;;;;6213456;23;20023;-76
2022/07/19 00:58:13;;;;;;;8.75;7.50;;;17.00;99.90;;;;;;6237050;23;20012;-78
2022/07/19 01:00:40;;;;;;;7.43;6.38;;;16.90;99.90;;;;;;6238428;23;20016;-76
2022/07/19 01:03:09;;;;;;;8.57;6.97;;;17.00;99.90;;;;;;6212864;23;20433;-77
2022/07/19 01:05:34;;;;;;;8.50;6.70;;;17.00;99.90;;;;;;6188366;23;20012;-76
2022/07/19 01:08:01;;;;;;;9.57;6.97;;;17.00;99.90;;;;;;6212389;23;20016;-76
2022/07/19 01:10:27;;;;;;;7.90;6.50;;;17.00;99.90;;;;;;6237869;23;20014;-77
2022/07/19 01:12:53;;;;;;;7.40;6.65;;;17.00;99.90;;;;;;6215156;23;20039;-77
2022/07/19 01:15:25;;;;;;;9.88;7.78;;;17.10;99.90;;;;;;6240591;23;20090;-77
2022/07/19 01:17:52;;;;;;;12.23;7.75;;;17.10;99.90;;;;;;6238067;23;20023;-76
2022/07/19 01:20:19;;;;;;;10.50;6.47;;;17.00;99.90;;;;;;6214135;23;20484;-75
2022/07/19 01:22:46;;;;;;;9.02;7.68;;;17.00;99.90;;;;;;6239639;23;20008;-75
2022/07/19 01:25:12;;;;;;;8.32;6.60;;;16.90;99.90;;;;;;6214300;23;20020;-77
2022/07/19 01:27:51;;;;;;;7.43;6.35;;;16.90;99.90;;;;;;6216164;23;20031;-77
2022/07/19 01:30:22;;;;;;;7.07;6.05;;;16.70;99.90;;;;;;6214471;23;20016;-77
2022/07/19 01:32:49;;;;;;;7.90;6.38;;;16.60;99.90;;;;;;6242875;23;20313;-77
2022/07/19 01:35:15;;;;;;;8.18;6.85;;;16.50;99.90;;;;;;6241808;23;20012;-79
2022/07/19 01:37:42;;;;;;;9.85;6.55;;;16.40;99.90;;;;;;6241665;23;20019;-76
2022/07/19 01:40:11;;;;;;;7.05;6.10;;;16.50;99.90;;;;;;6240466;23;20039;-78
2022/07/19 01:42:37;;;;;;;10.70;6.68;;;16.50;99.90;;;;;;6241578;23;20019;-76
2022/07/19 01:45:04;;;;;;;8.82;6.32;;;16.50;99.90;;;;;;6241603;23;20008;-78
2022/07/19 01:47:30;;;;;;;7.78;6.40;;;16.50;99.90;;;;;;6216147;23;20012;-76
2022/07/19 01:49:56;;;;;;;7.90;5.82;;;16.60;99.90;;;;;;6217321;23;20012;-77
2022/07/19 01:52:22;;;;;;;10.38;7.50;;;16.60;99.90;;;;;;6217281;23;20031;-76
2022/07/19 01:54:48;;;;;;;16.10;9.23;;;16.70;99.90;;;;;;6217281;23;20070;-76
2022/07/19 01:57:14;;;;;;;8.90;7.53;;;16.90;99.90;;;;;;6239919;23;20396;-78
2022/07/19 01:59:40;;;;;;;10.82;8.40;;;17.10;99.90;;;;;;6242334;23;20012;-76
2022/07/19 02:02:06;;;;;;;10.93;8.73;;;17.20;99.90;;;;;;6241860;23;20069;-77
2022/07/19 02:04:34;;;;;;;10.80;8.45;;;17.20;99.90;;;;;;6241666;23;20061;-78
2022/07/19 02:07:03;;;;;;;9.77;7.38;;;17.30;99.90;;;;;;6216362;23;20086;-79
2022/07/19 02:09:29;;;;;;;9.40;6.88;;;17.20;99.90;;;;;;6215739;23;20015;-78
2022/07/19 02:11:54;;;;;;;7.07;6.38;;;17.00;99.90;;;;;;6242849;23;20016;-79
2022/07/19 02:14:20;;;;;;;7.00;5.88;;;16.90;99.90;;;;;;6190309;23;20376;-78
2022/07/19 02:16:46;;;;;;;7.53;6.60;;;16.70;99.90;;;;;;6241983;23;20016;-77
2022/07/19 02:19:11;;;;;;;8.73;6.30;;;16.70;99.90;;;;;;6215136;23;20020;-78
2022/07/19 02:21:38;;;;;;;11.63;7.22;;;16.60;99.90;;;;;;6215895;23;20052;-75
2022/07/19 02:24:05;;;;;;;11.07;7.85;;;16.60;99.90;;;;;;6242160;23;20019;-78
2022/07/19 02:26:32;;;;;;;9.93;7.90;;;16.50;99.90;;;;;;6240565;23;20464;-77
2022/07/19 02:29:02;;;;;;;8.23;7.15;;;16.80;99.90;;;;;;6215975;23;20016;-77
2022/07/19 02:31:27;;;;;;;8.85;7.85;;;16.70;99.90;;;;;;6239119;23;20020;-77
2022/07/19 02:33:53;;;;;;;10.65;8.15;;;16.80;99.90;;;;;;6215145;23;20075;-78
2022/07/19 02:36:22;;;;;;;9.93;7.10;;;16.90;99.90;;;;;;6215646;23;20024;-77
2022/07/19 02:38:47;;;;;;;10.18;8.02;;;17.00;99.90;;;;;;6165939;23;20012;-78
2022/07/19 02:41:13;;;;;;;10.15;7.60;;;16.90;99.90;;;;;;6214733;23;20095;-77
2022/07/19 02:43:54;;;;;;;10.65;8.20;;;16.90;99.90;;;;;;6217028;23;20018;-78
2022/07/19 02:46:23;;;;;;;10.23;7.95;;;17.10;99.90;;;;;;6215820;23;20118;-79
2022/07/19 02:48:59;;;;;;;11.00;7.47;;;17.20;99.90;;;;;;6217457;23;20044;-78
2022/07/19 02:51:34;;;;;;;9.18;7.50;;;17.30;99.90;;;;;;6193312;23;20016;-77
2022/07/19 02:54:25;;;;;;;9.45;7.43;;;17.50;99.90;;;;;;6192574;23;20023;-79
2022/07/19 02:56:57;;;;;;;9.13;7.10;;;17.50;99.90;;;;;;6216798;23;20066;-78
2022/07/19 02:59:23;;;;;;;8.30;6.65;;;17.60;99.90;;;;;;6190227;23;20016;-79
2022/07/19 03:01:49;;;;;;;10.57;6.93;;;17.50;99.90;;;;;;6215804;23;20012;-76
2022/07/19 03:04:14;;;;;;;8.23;6.50;;;17.70;99.90;;;;;;6241272;23;20500;-76
2022/07/19 03:06:40;;;;;;;8.23;6.22;;;17.40;99.90;;;;;;6216629;23;20109;-76
2022/07/19 03:09:06;;;;;;;8.88;6.65;;;17.30;99.90;;;;;;6214889;23;20097;-77
2022/07/19 03:11:33;;;;;;;8.30;6.45;;;17.10;99.90;;;;;;6240878;23;20031;-78
2022/07/19 03:13:58;;;;;;;6.22;5.50;;;17.00;99.90;;;;;;6241206;23;20047;-77
2022/07/19 03:16:24;;;;;;;7.88;5.78;;;16.80;99.90;;;;;;6189549;23;20023;-77
2022/07/19 03:18:50;;;;;;;9.35;5.45;;;16.60;99.90;;;;;;6215433;23;20030;-78
2022/07/19 03:21:16;;;;;;;8.18;6.72;;;16.50;99.90;;;;;;6214381;23;20099;-76
2022/07/19 03:23:41;;;;;;;7.57;6.35;;;16.40;99.90;;;;;;6190541;23;20012;-80
2022/07/19 03:26:07;;;;;;;7.22;5.82;;;16.20;99.90;;;;;;6213781;23;20008;-76
2022/07/19 03:28:34;;;;;;;7.40;6.20;;;16.10;99.90;;;;;;6240311;23;20019;-76
2022/07/19 03:31:00;;;;;;;7.03;5.95;;;15.90;99.90;;;;;;6240755;23;20031;-77
2022/07/19 03:33:25;;;;;;;7.90;5.85;;;15.90;99.90;;;;;;6214905;23;20020;-79
2022/07/19 03:35:51;;;;;;;7.15;5.80;;;15.90;99.90;;;;;;6215818;23;20099;-79
2022/07/19 03:38:17;;;;;;;6.40;5.50;;;15.90;99.90;;;;;;6214642;23;20023;-78
2022/07/19 03:40:46;;;;;;;7.57;6.28;;;15.90;99.90;;;;;;6214129;23;20055;-78
2022/07/19 03:43:12;;;;;;;9.88;6.82;;;15.90;99.90;;;;;;6239479;23;20444;-77
2022/07/19 03:45:37;;;;;;;8.25;6.35;;;15.80;99.90;;;;;;6187927;23;20012;-77
2022/07/19 03:48:03;;;;;;;9.52;6.45;;;15.90;99.90;;;;;;6214627;23;20091;-77
2022/07/19 03:50:29;;;;;;;7.78;5.85;;;15.90;99.90;;;;;;6215371;23;20009;-77
2022/07/19 03:52:55;;;;;;;8.07;6.13;;;16.00;99.90;;;;;;6213845;23;20019;-77
2022/07/19 03:55:21;;;;;;;6.80;5.30;;;16.00;99.90;;;;;;6240102;23;20012;-78
2022/07/19 03:57:47;;;;;;;7.22;5.20;;;16.00;99.90;;;;;;6190244;23;20035;-79
2022/07/19 04:00:13;;;;;;;6.40;5.22;;;16.00;99.90;;;;;;6215387;23;20404;-78
2022/07/19 04:02:38;;;;;;;6.40;5.72;;;16.00;99.90;;;;;;6241085;23;20044;-78
2022/07/19 04:05:05;;;;;;;6.80;5.53;;;16.00;99.90;;;;;;6189414;23;20096;-76
2022/07/19 04:08:15;;;;;;;6.72;5.50;;;16.00;99.90;;;;;;6215774;23;20613;-79
2022/07/19 04:10:55;;;;;;;8.38;5.90;;;16.20;99.90;;;;;;6214860;23;20102;-78
2022/07/19 04:13:35;;;;;;;6.80;5.57;;;16.10;99.90;;;;;;6215252;23;20016;-79
2022/07/19 04:16:04;;;;;;;7.43;5.35;;;16.10;99.90;;;;;;6191137;23;20074;-77
2022/07/19 04:18:30;;;;;;;6.45;4.55;;;15.90;99.90;;;;;;6215514;23;20023;-80
2022/07/19 04:20:56;;;;;;;6.25;5.07;;;15.80;99.90;;;;;;6215105;23;20090;-78
2022/07/19 04:23:46;;;;;;;8.38;5.88;;;15.80;99.90;;;;;;6213540;23;20020;-81
2022/07/19 04:27:17;;;;;;;;;;;;;;;;;;;;;
2022/07/19 04:30:10;;;;;;;8.57;6.90;;;16.00;99.90;;;;;;6266070;22;20324;-79
2022/07/19 04:32:43;;;;;;;11.55;5.90;;;16.20;99.90;;;;;;6213307;23;20016;-79
2022/07/19 04:35:09;;;;;;;8.65;6.28;;;16.40;99.90;;;;;;6212520;23;20101;-80
2022/07/19 04:37:38;;;;;;;10.38;6.82;;;16.50;99.90;;;;;;6214481;23;20016;-77
2022/07/19 04:40:07;;;;;;;11.82;7.10;;;16.50;99.90;;;;;;6215534;23;20012;-78
2022/07/19 04:45:39;;;;;;;7.07;6.05;;;16.80;99.90;;;;;;6219100;23;20091;-78
2022/07/19 04:48:05;;;;;;;10.45;7.05;;;16.80;99.90;;;;;;6215448;23;20008;-77
2022/07/19 04:50:36;;;;;;;9.25;6.90;;;16.90;99.90;;;;;;6240065;23;20087;-78
2022/07/19 04:53:06;;;;;;;8.55;6.85;;;17.00;99.90;;;;;;6241073;23;20016;-79
2022/07/19 04:55:32;;;;;;;9.25;7.35;;;17.20;99.90;;;;;;6215101;23;20074;-78
2022/07/19 04:57:58;;;;;;;10.85;6.75;;;17.50;99.90;;;;;;6215417;23;20019;-79
2022/07/19 05:00:24;;;;;;;9.35;6.93;;;16.90;99.90;;;;;;6240758;23;20008;-78
2022/07/19 05:03:05;;;;;;;12.40;7.03;;;17.80;99.90;;;;;;6215514;23;20012;-81
2022/07/19 05:05:33;;;;;;;9.45;6.90;;;18.00;99.90;;;;;;6218048;23;20074;-79
2022/07/19 05:07:59;;;;;;;8.98;6.85;;;18.20;99.90;;;;;;6216742;23;20012;-79
2022/07/19 05:10:25;;;;;;;8.23;7.07;;;18.30;99.90;;;;;;6215622;23;20012;-79
2022/07/19 05:12:50;;;;;;;10.98;7.15;;;18.40;99.90;;;;;;6216508;23;20009;-77
2022/07/19 05:15:16;;;;;;;8.60;6.47;;;18.50;99.90;;;;;;6216063;23;20620;-77
2022/07/19 05:17:42;;;;;;;8.95;6.82;;;18.60;99.90;;;;;;6215862;23;20087;-78
2022/07/19 05:20:58;;;;;;;10.55;7.05;;;18.60;99.90;;;;;;6240985;23;20438;-77
2022/07/19 05:24:15;;;;;;;7.30;6.57;;;18.70;99.90;;;;;;6120550;23;20018;-77
2022/07/19 05:36:32;;;;;;;;;;;;;;;;;;;;;
2022/07/19 06:15:21;;;;;;;8.65;6.20;;;20.10;99.90;;;;;;5954578;24;20039;-77
2022/07/19 06:18:07;;;;;;;16.00;6.53;;;20.60;99.90;;;;;;5828863;24;20826;-78
2022/07/19 06:22:07;;;;;;;7.38;6.05;;;20.60;99.90;;;;;;5942572;24;20028;-76
2022/07/19 06:24:20;;;;;;;7.07;5.88;;;20.50;99.90;;;;;;5966050;23;20030;-79
2022/07/19 06:26:46;;;;;;;8.68;6.05;;;20.90;99.90;;;;;;6016723;23;20023;-78
2022/07/19 06:29:14;;;;;;;7.85;5.65;;;20.90;99.90;;;;;;6151912;23;20298;-78
2022/07/19 06:31:40;;;;;;;8.75;5.68;;;21.30;99.90;;;;;;6197085;23;20018;-78
2022/07/19 06:34:05;;;;;;;6.78;5.28;;;21.40;99.90;;;;;;6197190;23;20016;-77
2022/07/19 06:36:32;;;;;;;8.38;5.75;;;21.50;99.90;;;;;;6245232;23;20254;-77
2022/07/19 06:38:58;;;;;;;6.72;5.15;;;21.60;99.90;;;;;;6171890;23;20078;-77
2022/07/19 06:41:23;;;;;;;8.32;5.05;;;21.90;99.90;;;;;;6220704;23;20440;-78
2022/07/19 06:43:49;;;;;;;7.03;4.63;;;21.90;99.90;;;;;;6248090;23;20023;-79
2022/07/19 06:46:14;;;;;;;7.15;5.10;;;22.10;99.90;;;;;;6221686;23;20008;-76
2022/07/19 06:48:40;;;;;;;9.20;4.70;;;22.30;99.90;;;;;;6249078;23;20012;-78
2022/07/19 06:51:07;;;;;;;6.65;5.00;;;22.50;99.90;;;;;;6223696;23;20019;-77
2022/07/19 06:53:33;;;;;;;8.25;5.30;;;22.60;99.90;;;;;;6244793;23;20019;-76
2022/07/19 06:55:59;;;;;;;6.88;5.47;;;22.80;99.90;;;;;;6192664;23;20016;-78
2022/07/19 06:58:25;;;;;;;6.50;5.13;;;23.00;99.90;;;;;;6167323;23;20090;-77
2022/07/19 07:00:51;;;;;;;8.45;5.30;;;23.10;99.90;;;;;;6192863;23;20023;-77
2022/07/19 07:03:18;;;;;;;7.68;5.07;;;23.30;99.90;;;;;;6241581;23;20008;-76
2022/07/19 07:05:44;;;;;;;8.27;4.85;;;23.50;99.90;;;;;;6192555;23;20131;-79
2022/07/19 07:08:10;;;;;;;6.28;4.80;;;23.60;99.90;;;;;;6215929;23;20314;-77
2022/07/19 07:10:37;;;;;;;9.90;4.78;;;23.80;99.90;;;;;;6216251;23;20019;-72
2022/07/19 07:13:02;;;;;;;7.30;4.80;;;24.00;99.90;;;;;;6241924;23;20885;-76
2022/07/19 07:15:28;;;;;;;6.05;4.75;;;24.10;99.90;;;;;;6217155;23;20059;-75
2022/07/19 07:17:54;;;;;;;6.63;4.40;;;24.20;99.90;;;;;;6216517;23;20038;-77
2022/07/19 07:20:20;;;;;;;10.68;4.80;;;24.40;99.90;;;;;;6217861;23;20020;-75
2022/07/19 07:22:45;;;;;;;6.60;4.45;;;24.40;99.90;;;;;;6242028;23;20130;-76
2022/07/19 07:25:11;;;;;;;5.82;4.35;;;24.40;99.90;;;;;;6241907;23;20047;-77
2022/07/19 07:27:37;;;;;;;7.47;5.00;;;24.60;99.90;;;;;;6242466;23;20008;-77
2022/07/19 07:30:04;;;;;;;6.30;4.82;;;24.70;99.90;;;;;;6192413;23;20097;-74
2022/07/19 07:32:30;;;;;;;7.20;4.35;;;24.80;99.90;;;;;;6217218;23;20020;-76
2022/07/19 07:34:55;;;;;;;5.20;4.00;;;24.90;99.90;;;;;;6241153;23;20496;-78
2022/07/19 07:37:21;;;;;;;6.75;4.68;;;25.10;99.90;;;;;;6216703;23;20305;-78
2022/07/19 07:39:47;;;;;;;8.15;4.97;;;25.10;99.90;;;;;;6243324;23;20008;-76
2022/07/19 07:42:13;;;;;;;6.25;4.47;;;25.10;99.90;;;;;;6217590;23;20012;-77
2022/07/19 07:44:39;;;;;;;7.20;4.60;;;25.20;99.90;;;;;;6191539;23;20061;-76
2022/07/19 07:47:08;;;;;;;8.93;4.53;;;25.20;99.90;;;;;;6216922;23;20008;-78
2022/07/19 07:49:34;;;;;;;6.50;4.38;;;25.30;99.90;;;;;;6191539;23;20150;-79
2022/07/19 07:52:00;;;;;;;7.47;4.50;;;25.30;99.90;;;;;;6213267;23;20390;-77
2022/07/19 07:54:26;;;;;;;8.10;4.28;;;25.50;99.90;;;;;;6237694;23;20016;-77
2022/07/19 07:56:51;;;;;;;5.13;3.67;;;25.60;99.90;;;;;;6190846;23;20048;-76
2022/07/19 07:59:17;;;;;;;6.35;3.65;;;25.70;99.90;;;;;;6240832;23;20027;-78
2022/07/19 08:01:44;;;;;;;5.63;4.20;;;25.80;99.90;;;;;;6215358;23;20322;-80
2022/07/19 08:04:10;;;;;;;5.70;4.03;;;26.00;99.90;;;;;;6216839;23;20113;-79
2022/07/19 08:06:36;;;;;;;5.35;3.63;;;26.10;99.90;;;;;;6214799;23;20019;-79
2022/07/19 08:09:02;;;;;;;4.22;3.75;;;26.20;99.90;;;;;;6190725;23;20012;-78
2022/07/19 08:11:28;;;;;;;7.75;4.22;;;26.20;99.90;;;;;;6166127;23;20019;-78
2022/07/19 08:13:53;;;;;;;6.72;3.72;;;26.30;99.90;;;;;;6241590;23;20034;-79
2022/07/19 08:16:19;;;;;;;5.75;3.67;;;26.40;99.90;;;;;;6166985;23;20016;-77
2022/07/19 08:18:45;;;;;;;5.88;3.55;;;26.60;99.90;;;;;;6191867;23;20023;-77
2022/07/19 08:21:11;;;;;;;5.88;3.80;;;26.60;99.90;;;;;;6241622;23;20016;-78
2022/07/19 08:23:37;;;;;;;6.10;3.42;;;26.70;99.90;;;;;;6216172;23;20008;-76
2022/07/19 08:26:03;;;;;;;4.50;2.97;;;26.80;99.90;;;;;;6239094;23;20016;-76
2022/07/19 08:28:28;;;;;;;5.95;3.50;;;26.90;99.90;;;;;;6241538;23;20004;-77
2022/07/19 08:30:54;;;;;;;7.70;3.42;;;27.10;99.90;;;;;;6240919;23;20019;-76
2022/07/19 08:33:20;;;;;;;5.05;3.30;;;27.10;99.90;;;;;;6216268;23;20020;-77
2022/07/19 08:35:45;;;;;;;5.00;3.10;;;27.10;99.90;;;;;;6215399;23;20859;-76
2022/07/19 08:38:11;;;;;;;4.25;3.10;;;27.30;99.90;;;;;;6242612;23;20069;-77
2022/07/19 08:40:42;;;;;;;4.32;2.80;;;27.30;99.90;;;;;;6215120;23;20512;-77
2022/07/19 08:43:08;;;;;;;6.10;3.17;;;27.50;99.90;;;;;;6216793;23;20012;-77
2022/07/19 08:45:37;;;;;;;4.60;3.00;;;27.60;99.90;;;;;;6241421;23;20020;-73
2022/07/19 08:48:05;;;;;;;6.28;2.90;;;27.60;99.90;;;;;;6239597;23;20012;-76
2022/07/19 08:50:32;;;;;;;3.50;2.95;;;27.90;99.90;;;;;;6240872;23;20016;-74
2022/07/19 08:52:59;;;;;;;3.67;2.90;;;27.90;99.90;;;;;;6189787;23;20095;-75
2022/07/19 08:55:25;;;;;;;7.80;3.22;;;28.00;98.90;;;;;;6240261;23;20019;-74
2022/07/19 08:57:57;;;;;;;4.13;3.15;;;28.20;95.20;;;;;;6239388;23;20024;-75
2022/07/19 09:00:24;;;;;;;3.95;3.00;;;28.30;85.50;;;;;;6191378;23;20014;-76
2022/07/19 09:02:59;;;;;;;6.45;3.42;;;28.30;82.10;;;;;;6215356;23;20024;-76
2022/07/19 09:05:24;;;;;;;;;;;28.50;65.30;;;;;;6238335;23;20405;-79
2022/07/19 09:08:02;;;;;;;4.47;2.88;;;28.60;66.70;;;;;;6187539;23;19911;-78
2022/07/19 09:10:28;;;;;;;6.97;3.38;;;28.70;53.60;;;;;;6238416;23;20089;-81
2022/07/19 09:13:15;;;;;;;5.50;3.00;;;29.00;61.80;;;;;;6215260;23;20440;-79
2022/07/19 09:15:45;;;;;;;3.90;3.08;;;29.10;51.80;;;;;;6213710;23;20344;-80
2022/07/19 09:18:25;;;;;;;4.30;3.20;;;29.40;33.60;;;;;;6239867;23;20098;-79
2022/07/19 09:21:03;;;;;;;4.53;2.97;;;29.50;42.20;;;;;;6188619;23;20012;-78
2022/07/19 09:23:29;;;;;;;3.40;3.03;;;29.70;43.20;;;;;;6237988;23;20020;-79
2022/07/19 09:26:01;;;;;;;6.07;3.30;;;29.80;36.80;;;;;;6238850;23;20471;-80
2022/07/19 09:28:31;;;;;;;5.57;3.20;;;30.00;42.10;;;;;;6213711;23;20453;-79
2022/07/19 09:30:58;;;;;;;3.33;2.75;;;30.10;41.20;;;;;;6213087;23;20023;-79
2022/07/19 09:33:29;;;;;;;4.60;2.85;;;30.40;21.60;;;;;;6239344;23;20027;-81
2022/07/19 09:35:58;;;;;;;4.32;2.70;;;30.60;27.80;;;;;;6239265;23;20016;-78
2022/07/19 09:38:31;;;;;;;3.83;2.55;;;30.70;32.50;;;;;;6213507;23;20722;-77
2022/07/19 09:41:06;;;;;;;4.68;2.90;;;30.70;1.90;;;;;;6214483;23;20526;-77
2022/07/19 09:43:54;;;;;;;3.55;2.70;;;30.80;1.00;;;;;;6189393;23;20372;-78
2022/07/19 09:46:27;;;;;;;7.05;3.10;;;31.20;1.00;;;;;;6213144;23;20055;-76
2022/07/19 09:48:53;;;;;;;4.47;2.67;;;31.40;1.00;;;;;;6213095;23;20012;-76
2022/07/19 09:51:20;;;;;;;4.25;2.75;;;31.60;1.00;;;;;;6163083;23;20020;-78
2022/07/19 09:53:47;;;;;;;3.33;2.78;;;31.60;1.00;;;;;;6189539;23;20024;-77
2022/07/19 09:56:15;;;;;;;5.28;2.85;;;31.70;1.00;;;;;;6188299;23;20433;-79
2022/07/19 09:58:42;;;;;;;5.75;2.90;;;31.70;1.00;;;;;;6239048;23;20016;-80
2022/07/19 10:01:09;;;;;;;4.28;2.30;;;31.90;1.00;;;;;;6212417;23;20019;-77
2022/07/19 10:03:34;;;;;;;3.58;2.42;;;32.10;1.00;;;;;;6164438;23;20450;-80
2022/07/19 10:06:01;;;;;;;3.60;2.60;;;32.20;1.00;;;;;;6190042;23;20012;-82
2022/07/19 10:08:26;;;;;;;11.05;2.70;;;32.30;1.00;;;;;;6189173;23;20012;-81
2022/07/19 10:10:53;;;;;;;5.75;2.40;;;32.40;1.00;;;;;;6213507;23;20032;-81
2022/07/19 10:13:19;;;;;;;3.42;2.42;;;32.40;1.00;;;;;;6188357;23;20027;-78
2022/07/19 10:15:48;;;;;;;3.88;2.08;;;32.50;99.90;;;;;;6212368;23;20102;-79
2022/07/19 10:18:20;;;;;;;3.72;2.03;;;32.40;1.00;;;;;;6237771;23;20016;-79
2022/07/19 10:20:48;;;;;;;4.30;2.20;;;32.60;1.00;;;;;;6236352;23;20016;-78
2022/07/19 10:23:15;;;;;;;4.38;2.20;;;32.70;99.90;;;;;;6212379;23;20024;-79
2022/07/19 10:25:43;;;;;;;3.17;2.20;;;32.90;99.90;;;;;;6213896;23;20016;-77
2022/07/19 10:28:29;;;;;;;6.82;2.78;;;33.10;99.90;;;;;;6238702;23;20087;-77
2022/07/19 10:30:56;;;;;;;3.65;2.40;;;33.00;99.90;;;;;;6215607;23;20051;-77
2022/07/19 10:33:33;;;;;;;2.33;2.00;;;32.90;99.90;;;;;;6215364;23;20031;-80
2022/07/19 10:36:31;;;;;;;3.75;2.13;;;32.90;99.90;;;;;;6216369;23;20023;-79
2022/07/19 10:39:35;;;;;;;3.42;2.63;;;32.90;99.90;;;;;;6240550;23;20063;-78
2022/07/19 10:42:08;;;;;;;3.63;2.45;;;32.90;99.90;;;;;;6239775;23;20020;-77
2022/07/19 10:44:59;;;;;;;2.78;2.17;;;33.30;99.90;;;;;;6238192;23;20072;-80
2022/07/19 10:47:37;;;;;;;3.38;2.28;;;33.20;99.90;;;;;;6239879;23;20089;-78
2022/07/19 10:50:04;;;;;;;4.55;2.20;;;33.30;99.90;;;;;;6241098;23;20012;-79
2022/07/19 10:52:33;;;;;;;3.10;2.42;;;33.60;99.90;;;;;;6236382;23;20012;-75
2022/07/19 10:55:24;;;;;;;3.90;2.55;;;33.50;99.90;;;;;;6216047;23;20441;-76
2022/07/19 10:58:06;;;;;;;3.92;2.13;;;33.50;99.90;;;;;;6215799;23;20016;-78
2022/07/19 11:00:52;;;;;;;3.40;2.08;;;33.20;99.90;;;;;;6215104;23;20327;-75
2022/07/19 11:03:21;;;;;;;3.28;2.47;;;33.60;99.90;;;;;;6189504;23;20054;-80
2022/07/19 11:05:49;;;;;;;5.82;2.10;;;33.40;99.90;;;;;;6239877;23;20333;-78
2022/07/19 11:08:15;;;;;;;3.63;2.30;;;33.60;99.90;;;;;;6241765;23;20016;-77
2022/07/19 11:10:41;;;;;;;3.78;2.00;;;34.00;99.90;;;;;;6214457;23;20019;-80
2022/07/19 11:13:07;;;;;;;3.97;2.40;;;34.00;99.90;;;;;;6215788;23;20016;-79
2022/07/19 11:15:33;;;;;;;3.60;2.30;;;33.90;99.90;;;;;;6215580;23;20475;-81
2022/07/19 11:18:05;;;;;;;3.95;2.20;;;34.10;99.90;;;;;;6215096;23;20044;-81
2022/07/19 11:20:33;;;;;;;2.83;2.20;;;33.80;99.90;;;;;;6239961;23;20057;-77
2022/07/19 11:23:01;;;;;;;2.85;2.30;;;34.10;99.90;;;;;;6240791;23;20436;-78
2022/07/19 11:25:32;;;;;;;2.78;1.83;;;34.10;99.90;;;;;;6240834;23;20012;-77
2022/07/19 11:27:59;;;;;;;2.65;1.90;;;34.30;99.90;;;;;;6241447;23;20035;-78
2022/07/19 11:30:28;;;;;;;2.63;1.90;;;34.10;99.90;;;;;;6214491;23;20365;-79
2022/07/19 11:32:59;;;;;;;2.78;1.85;;;34.20;99.90;;;;;;6239749;23;20077;-80
2022/07/19 11:35:25;;;;;;;2.90;1.90;;;34.10;99.90;;;;;;6214285;23;20016;-77
2022/07/19 11:37:56;;;;;;;2.65;2.05;;;34.20;99.90;;;;;;6214800;23;20699;-79
2022/07/19 11:40:23;;;;;;;2.35;1.98;;;34.40;99.90;;;;;;6240372;23;20048;-80
2022/07/19 11:42:50;;;;;;;2.53;1.70;;;34.60;99.90;;;;;;6240497;23;20333;-78
2022/07/19 11:45:25;;;;;;;6.15;2.28;;;34.40;99.90;;;;;;6239632;23;20362;-78
2022/07/19 11:47:53;;;;;;;1.88;1.73;;;34.60;99.90;;;;;;6215259;23;20091;-77
2022/07/19 11:50:27;;;;;;;2.53;1.70;;;34.40;99.90;;;;;;6215509;23;20028;-81
2022/07/19 11:52:56;;;;;;;;;;;34.20;99.90;;;;;;6240678;23;20094;-80
2022/07/19 11:55:26;;;;;;;2.55;1.75;;;34.40;99.90;;;;;;6213790;23;19915;-76
2022/07/19 11:57:53;;;;;;;4.10;2.15;;;34.60;99.90;;;;;;6240311;23;20024;-79
2022/07/19 12:00:19;;;;;;;2.22;1.90;;;34.70;99.90;;;;;;6240877;23;20031;-76
2022/07/19 12:02:58;;;;;;;3.45;1.92;;;35.00;99.90;;;;;;6239842;23;20016;-75
2022/07/19 12:05:25;;;;;;;2.60;1.95;;;34.90;99.90;;;;;;6240664;23;20019;-79
2022/07/19 12:07:54;;;;;;;3.28;1.90;;;34.70;99.90;;;;;;6215493;23;20091;-78
2022/07/19 12:10:43;;;;;;;2.83;1.60;;;34.80;99.90;;;;;;6240504;23;20345;-77
2022/07/19 12:13:14;;;;;;;3.20;2.17;;;35.00;99.90;;;;;;6239163;23;20012;-78
2022/07/19 12:15:55;;;;;;;2.75;1.90;;;34.90;99.90;;;;;;6240190;23;20023;-76
2022/07/19 12:18:40;;;;;;;3.03;2.00;;;34.80;99.90;;;;;;6240496;23;20437;-76
2022/07/19 12:21:21;;;;;;;2.30;1.70;;;34.80;99.90;;;;;;6240038;23;20441;-75
2022/07/19 12:24:15;;;;;;;3.88;1.95;;;34.90;99.90;;;;;;6214657;23;20016;-75
2022/07/19 12:27:08;;;;;;;3.15;1.95;;;34.90;99.90;;;;;;6237286;23;20012;-73
2022/07/19 12:29:45;;;;;;;3.70;2.00;;;34.80;99.90;;;;;;6241263;23;20023;-77
2022/07/19 12:32:13;;;;;;;2.03;1.73;;;34.90;99.90;;;;;;6214604;23;20016;-79
2022/07/19 12:34:47;;;;;;;3.35;2.00;;;35.00;99.90;;;;;;6240467;23;20086;-78
2022/07/19 12:37:31;;;;;;;3.35;1.70;;;34.70;99.90;;;;;;6239625;23;20023;-75
2022/07/19 12:39:56;;;;;;;2.67;2.00;;;34.80;99.90;;;;;;6215161;23;20019;-75
2022/07/19 12:42:22;;;;;;;2.65;2.10;;;34.90;99.90;;;;;;6214794;23;20095;-75
2022/07/19 12:44:49;;;;;;;3.03;2.00;;;34.70;99.90;;;;;;6214870;23;20396;-77
2022/07/19 12:47:15;;;;;;;2.50;2.00;;;34.80;99.90;;;;;;6239244;23;20012;-76
2022/07/19 12:49:46;;;;;;;3.65;1.80;;;35.10;99.90;;;;;;6240442;23;20432;-76
2022/07/19 12:52:12;;;;;;;4.28;1.75;;;35.20;99.90;;;;;;6239411;23;20016;-77
2022/07/19 12:54:38;;;;;;;2.28;2.08;;;35.10;99.90;;;;;;6214168;23;20027;-77
2022/07/19 12:57:04;;;;;;;2.22;1.70;;;35.40;99.90;;;;;;6213898;23;20020;-76
2022/07/19 12:59:39;;;;;;;2.67;1.60;;;35.30;99.90;;;;;;6239006;23;20085;-78
2022/07/19 13:02:06;;;;;;;2.97;1.77;;;35.20;99.90;;;;;;6214858;23;20492;-80
2022/07/19 13:04:32;;;;;;;2.25;1.90;;;35.40;99.90;;;;;;6214372;23;20008;-80
2022/07/19 13:06:57;;;;;;;2.67;1.60;;;35.20;99.90;;;;;;6189567;23;20587;-79
2022/07/19 13:09:23;;;;;;;2.72;1.77;;;35.20;99.90;;;;;;6211631;23;20016;-79
2022/07/19 13:11:49;;;;;;;2.70;1.83;;;35.20;99.90;;;;;;6238448;23;20016;-77
2022/07/19 13:14:14;;;;;;;1.98;1.70;;;35.30;99.90;;;;;;6163508;23;20066;-79
2022/07/19 13:16:40;;;;;;;3.17;1.90;;;35.50;99.90;;;;;;6188536;23;20053;-81
2022/07/19 13:19:06;;;;;;;3.50;2.17;;;35.30;99.90;;;;;;6239762;23;20349;-78
2022/07/19 13:21:32;;;;;;;2.13;1.80;;;35.40;99.90;;;;;;6240545;23;20023;-81
2022/07/19 13:23:58;;;;;;;3.75;1.95;;;35.50;99.90;;;;;;6214146;23;20012;-81
2022/07/19 13:26:24;;;;;;;3.33;1.92;;;35.60;99.90;;;;;;6188061;23;20067;-76
2022/07/19 13:28:50;;;;;;;2.53;2.08;;;35.60;99.90;;;;;;6239898;23;20417;-79
2022/07/19 13:31:15;;;;;;;2.88;2.17;;;35.90;99.90;;;;;;6215425;23;20092;-79
2022/07/19 13:33:41;;;;;;;3.17;2.10;;;35.80;99.90;;;;;;6239706;23;20422;-79
2022/07/19 13:36:07;;;;;;;4.57;2.10;;;35.90;99.90;;;;;;6237430;23;20023;-78
2022/07/19 13:38:32;;;;;;;4.78;1.85;;;35.90;99.90;;;;;;6164985;23;20019;-79
2022/07/19 13:40:58;;;;;;;2.95;2.10;;;35.90;99.90;;;;;;6240481;23;20035;-79
2022/07/19 13:43:24;;;;;;;2.40;1.90;;;36.10;99.90;;;;;;6214504;23;20429;-80
2022/07/19 13:45:50;;;;;;;2.42;2.13;;;36.20;99.90;;;;;;6214340;23;20074;-78
2022/07/19 13:48:16;;;;;;;3.08;2.00;;;36.00;99.90;;;;;;6214266;23;20015;-76
2022/07/19 13:50:42;;;;;;;4.38;1.95;;;35.70;99.90;;;;;;6189078;23;20019;-79